sensor_id;sensor_type;location;lat;lon;timestamp;P1;durP1;ratioP1;P2;durP2;ratioP2
75993;SDS011;64680;53.800;9.988;2022-10-31T00:01:59;11.00;;;8.05;;
75993;SDS011;64680;53.800;9.988;2022-10-31T00:04:24;14.38;;;10.13;;
75993;SDS011;64680;53.800;9.988;2022-10-31T00:06:50;13.32;;;9.82;;
75993;SDS011;64680;53.800;9.988;2022-10-31T00:09:16;19.20;;;14.68;;
75993;SDS011;64680;53.800;9.988;2022-10-31T00:11:41;18.50;;;12.38;;
75993;SDS011;64680;53.800;9.988;2022-10-31T00:14:07;22.95;;;13.60;;
75993;SDS011;64680;53.800;9.988;2022-10-31T00:16:32;32.28;;;20.15;;
75993;SDS011;64680;53.800;9.988;2022-10-31T00:18:59;46.05;;;27.85;;
75993;SDS011;64680;53.800;9.988;2022-10-31T00:21:27;33.05;;;20.65;;
75993;SDS011;64680;53.800;9.988;2022-10-31T00:23:53;33.33;;;19.90;;
75993;SDS011;64680;53.800;9.988;2022-10-31T00:26:19;44.25;;;22.27;;
75993;SDS011;64680;53.800;9.988;2022-10-31T00:28:45;33.47;;;20.17;;
75993;SDS011;64680;53.800;9.988;2022-10-31T00:31:11;33.95;;;20.67;;
75993;SDS011;64680;53.800;9.988;2022-10-31T00:33:38;46.47;;;25.60;;
75993;SDS011;64680;53.800;9.988;2022-10-31T00:36:05;35.17;;;18.40;;
75993;SDS011;64680;53.800;9.988;2022-10-31T00:38:32;79.45;;;40.22;;
75993;SDS011;64680;53.800;9.988;2022-10-31T00:40:57;68.85;;;34.40;;
75993;SDS011;64680;53.800;9.988;2022-10-31T00:43:23;58.67;;;29.75;;
75993;SDS011;64680;53.800;9.988;2022-10-31T00:45:48;42.08;;;23.30;;
75993;SDS011;64680;53.800;9.988;2022-10-31T00:48:14;34.00;;;21.30;;
75993;SDS011;64680;53.800;9.988;2022-10-31T00:50:40;42.42;;;24.35;;
75993;SDS011;64680;53.800;9.988;2022-10-31T00:53:05;42.78;;;24.27;;
75993;SDS011;64680;53.800;9.988;2022-10-31T00:55:31;31.08;;;16.15;;
75993;SDS011;64680;53.800;9.988;2022-10-31T00:57:57;64.82;;;32.85;;
75993;SDS011;64680;53.800;9.988;2022-10-31T01:00:23;31.45;;;19.20;;
75993;SDS011;64680;53.800;9.988;2022-10-31T01:02:48;41.55;;;23.00;;
75993;SDS011;64680;53.800;9.988;2022-10-31T01:05:14;31.67;;;17.70;;
75993;SDS011;64680;53.800;9.988;2022-10-31T01:07:40;29.30;;;17.58;;
75993;SDS011;64680;53.800;9.988;2022-10-31T01:10:07;70.28;;;32.10;;
75993;SDS011;64680;53.800;9.988;2022-10-31T01:12:36;31.23;;;19.50;;
75993;SDS011;64680;53.800;9.988;2022-10-31T01:15:03;36.47;;;20.85;;
75993;SDS011;64680;53.800;9.988;2022-10-31T01:17:29;31.73;;;19.25;;
75993;SDS011;64680;53.800;9.988;2022-10-31T01:19:54;71.43;;;32.58;;
75993;SDS011;64680;53.800;9.988;2022-10-31T01:22:20;51.65;;;25.98;;
75993;SDS011;64680;53.800;9.988;2022-10-31T01:24:45;56.10;;;28.42;;
75993;SDS011;64680;53.800;9.988;2022-10-31T01:27:11;36.20;;;21.35;;
75993;SDS011;64680;53.800;9.988;2022-10-31T01:29:36;50.97;;;25.80;;
75993;SDS011;64680;53.800;9.988;2022-10-31T01:32:02;28.83;;;16.92;;
75993;SDS011;64680;53.800;9.988;2022-10-31T01:34:28;67.20;;;34.13;;
75993;SDS011;64680;53.800;9.988;2022-10-31T01:36:53;70.32;;;34.00;;
75993;SDS011;64680;53.800;9.988;2022-10-31T01:39:19;32.40;;;19.15;;
75993;SDS011;64680;53.800;9.988;2022-10-31T01:41:46;32.65;;;19.17;;
75993;SDS011;64680;53.800;9.988;2022-10-31T01:49:19;36.92;;;22.42;;
75993;SDS011;64680;53.800;9.988;2022-10-31T01:52:00;40.13;;;22.13;;
75993;SDS011;64680;53.800;9.988;2022-10-31T01:54:40;36.25;;;20.38;;
75993;SDS011;64680;53.800;9.988;2022-10-31T01:57:08;33.47;;;19.13;;
75993;SDS011;64680;53.800;9.988;2022-10-31T01:59:38;30.48;;;20.08;;
75993;SDS011;64680;53.800;9.988;2022-10-31T02:02:07;27.08;;;17.10;;
75993;SDS011;64680;53.800;9.988;2022-10-31T02:04:33;31.30;;;17.58;;
75993;SDS011;64680;53.800;9.988;2022-10-31T02:07:23;24.42;;;13.73;;
75993;SDS011;64680;53.800;9.988;2022-10-31T02:09:51;27.15;;;15.90;;
75993;SDS011;64680;53.800;9.988;2022-10-31T02:12:18;36.25;;;16.48;;
75993;SDS011;64680;53.800;9.988;2022-10-31T02:14:45;23.85;;;14.32;;
75993;SDS011;64680;53.800;9.988;2022-10-31T02:17:11;23.55;;;14.52;;
75993;SDS011;64680;53.800;9.988;2022-10-31T02:25:13;22.20;;;14.57;;
75993;SDS011;64680;53.800;9.988;2022-10-31T02:33:59;29.17;;;18.23;;
75993;SDS011;64680;53.800;9.988;2022-10-31T02:36:43;23.77;;;14.00;;
75993;SDS011;64680;53.800;9.988;2022-10-31T02:39:22;28.00;;;17.50;;
75993;SDS011;64680;53.800;9.988;2022-10-31T02:46:49;31.42;;;17.60;;
75993;SDS011;64680;53.800;9.988;2022-10-31T02:49:32;107.28;;;28.52;;
75993;SDS011;64680;53.800;9.988;2022-10-31T02:52:01;25.98;;;16.10;;
75993;SDS011;64680;53.800;9.988;2022-10-31T02:54:27;22.30;;;13.18;;
75993;SDS011;64680;53.800;9.988;2022-10-31T02:57:01;16.30;;;11.35;;
75993;SDS011;64680;53.800;9.988;2022-10-31T02:59:31;20.73;;;12.70;;
75993;SDS011;64680;53.800;9.988;2022-10-31T03:13:09;18.35;;;12.82;;
75993;SDS011;64680;53.800;9.988;2022-10-31T03:15:56;24.55;;;15.88;;
75993;SDS011;64680;53.800;9.988;2022-10-31T03:18:40;22.45;;;15.13;;
75993;SDS011;64680;53.800;9.988;2022-10-31T03:24:06;55.47;;;20.05;;
75993;SDS011;64680;53.800;9.988;2022-10-31T03:26:35;17.60;;;11.70;;
75993;SDS011;64680;53.800;9.988;2022-10-31T03:29:05;17.13;;;11.50;;
75993;SDS011;64680;53.800;9.988;2022-10-31T03:31:35;17.88;;;12.02;;
75993;SDS011;64680;53.800;9.988;2022-10-31T03:34:05;21.40;;;14.07;;
75993;SDS011;64680;53.800;9.988;2022-10-31T03:36:33;12.35;;;8.13;;
75993;SDS011;64680;53.800;9.988;2022-10-31T03:39:01;12.60;;;8.80;;
75993;SDS011;64680;53.800;9.988;2022-10-31T03:41:31;14.00;;;10.32;;
75993;SDS011;64680;53.800;9.988;2022-10-31T03:44:02;17.08;;;10.77;;
75993;SDS011;64680;53.800;9.988;2022-10-31T03:46:32;17.13;;;10.55;;
75993;SDS011;64680;53.800;9.988;2022-10-31T03:48:59;13.27;;;10.13;;
75993;SDS011;64680;53.800;9.988;2022-10-31T03:51:31;13.85;;;9.90;;
75993;SDS011;64680;53.800;9.988;2022-10-31T03:56:54;17.23;;;11.88;;
75993;SDS011;64680;53.800;9.988;2022-10-31T03:59:26;14.48;;;9.10;;
75993;SDS011;64680;53.800;9.988;2022-10-31T04:02:06;61.10;;;22.27;;
75993;SDS011;64680;53.800;9.988;2022-10-31T04:04:35;21.85;;;13.60;;
75993;SDS011;64680;53.800;9.988;2022-10-31T04:07:03;17.92;;;11.80;;
75993;SDS011;64680;53.800;9.988;2022-10-31T04:09:31;17.67;;;11.23;;
75993;SDS011;64680;53.800;9.988;2022-10-31T04:12:00;78.68;;;27.98;;
75993;SDS011;64680;53.800;9.988;2022-10-31T04:14:31;31.13;;;17.23;;
75993;SDS011;64680;53.800;9.988;2022-10-31T04:16:58;41.60;;;22.30;;
75993;SDS011;64680;53.800;9.988;2022-10-31T04:19:26;24.88;;;14.18;;
75993;SDS011;64680;53.800;9.988;2022-10-31T04:21:51;31.73;;;16.40;;
75993;SDS011;64680;53.800;9.988;2022-10-31T04:24:17;55.40;;;22.73;;
75993;SDS011;64680;53.800;9.988;2022-10-31T04:26:43;31.52;;;18.38;;
75993;SDS011;64680;53.800;9.988;2022-10-31T04:29:08;84.53;;;30.40;;
75993;SDS011;64680;53.800;9.988;2022-10-31T04:31:34;75.47;;;25.05;;
75993;SDS011;64680;53.800;9.988;2022-10-31T04:33:59;33.95;;;18.42;;
75993;SDS011;64680;53.800;9.988;2022-10-31T04:36:25;31.10;;;17.30;;
75993;SDS011;64680;53.800;9.988;2022-10-31T04:38:50;42.15;;;21.75;;
75993;SDS011;64680;53.800;9.988;2022-10-31T04:41:16;28.05;;;15.10;;
75993;SDS011;64680;53.800;9.988;2022-10-31T04:43:41;25.00;;;13.35;;
75993;SDS011;64680;53.800;9.988;2022-10-31T04:46:07;33.47;;;17.83;;
75993;SDS011;64680;53.800;9.988;2022-10-31T04:48:32;26.05;;;13.65;;
75993;SDS011;64680;53.800;9.988;2022-10-31T04:50:59;41.13;;;21.35;;
75993;SDS011;64680;53.800;9.988;2022-10-31T04:53:25;52.90;;;19.50;;
75993;SDS011;64680;53.800;9.988;2022-10-31T04:55:51;42.90;;;19.42;;
75993;SDS011;64680;53.800;9.988;2022-10-31T04:58:16;34.75;;;18.60;;
75993;SDS011;64680;53.800;9.988;2022-10-31T05:00:42;104.63;;;32.63;;
75993;SDS011;64680;53.800;9.988;2022-10-31T05:03:07;29.83;;;15.82;;
75993;SDS011;64680;53.800;9.988;2022-10-31T05:05:33;33.65;;;18.27;;
75993;SDS011;64680;53.800;9.988;2022-10-31T05:07:59;33.97;;;17.75;;
75993;SDS011;64680;53.800;9.988;2022-10-31T05:10:26;35.65;;;16.83;;
75993;SDS011;64680;53.800;9.988;2022-10-31T05:12:54;30.33;;;15.20;;
75993;SDS011;64680;53.800;9.988;2022-10-31T05:15:22;132.15;;;30.35;;
75993;SDS011;64680;53.800;9.988;2022-10-31T05:17:49;37.88;;;18.98;;
75993;SDS011;64680;53.800;9.988;2022-10-31T05:20:15;74.32;;;24.77;;
75993;SDS011;64680;53.800;9.988;2022-10-31T05:22:43;33.70;;;16.23;;
75993;SDS011;64680;53.800;9.988;2022-10-31T05:25:09;37.78;;;16.65;;
75993;SDS011;64680;53.800;9.988;2022-10-31T05:27:38;189.48;;;37.45;;
75993;SDS011;64680;53.800;9.988;2022-10-31T05:30:08;32.97;;;17.60;;
75993;SDS011;64680;53.800;9.988;2022-10-31T05:32:45;48.47;;;23.42;;
75993;SDS011;64680;53.800;9.988;2022-10-31T05:35:45;35.72;;;18.50;;
75993;SDS011;64680;53.800;9.988;2022-10-31T05:38:03;33.33;;;16.40;;
75993;SDS011;64680;53.800;9.988;2022-10-31T05:40:29;30.08;;;16.45;;
75993;SDS011;64680;53.800;9.988;2022-10-31T05:42:55;25.42;;;14.02;;
75993;SDS011;64680;53.800;9.988;2022-10-31T05:45:22;50.45;;;20.83;;
75993;SDS011;64680;53.800;9.988;2022-10-31T05:47:54;27.30;;;14.57;;
75993;SDS011;64680;53.800;9.988;2022-10-31T05:50:22;30.40;;;15.85;;
75993;SDS011;64680;53.800;9.988;2022-10-31T05:52:53;25.02;;;14.00;;
75993;SDS011;64680;53.800;9.988;2022-10-31T05:55:23;85.45;;;22.75;;
75993;SDS011;64680;53.800;9.988;2022-10-31T05:57:50;28.05;;;14.27;;
75993;SDS011;64680;53.800;9.988;2022-10-31T06:00:16;59.17;;;22.27;;
75993;SDS011;64680;53.800;9.988;2022-10-31T06:02:42;83.55;;;22.67;;
75993;SDS011;64680;53.800;9.988;2022-10-31T06:05:08;72.95;;;21.40;;
75993;SDS011;64680;53.800;9.988;2022-10-31T06:07:34;188.75;;;31.25;;
75993;SDS011;64680;53.800;9.988;2022-10-31T06:10:00;23.63;;;13.32;;
75993;SDS011;64680;53.800;9.988;2022-10-31T06:12:27;29.83;;;15.50;;
75993;SDS011;64680;53.800;9.988;2022-10-31T06:14:52;17.55;;;10.00;;
75993;SDS011;64680;53.800;9.988;2022-10-31T06:17:18;95.25;;;24.52;;
75993;SDS011;64680;53.800;9.988;2022-10-31T06:19:44;16.88;;;10.05;;
75993;SDS011;64680;53.800;9.988;2022-10-31T06:22:09;18.65;;;10.77;;
75993;SDS011;64680;53.800;9.988;2022-10-31T06:24:36;54.03;;;19.75;;
75993;SDS011;64680;53.800;9.988;2022-10-31T06:27:02;17.65;;;10.88;;
75993;SDS011;64680;53.800;9.988;2022-10-31T06:29:28;99.85;;;21.67;;
75993;SDS011;64680;53.800;9.988;2022-10-31T06:31:53;37.75;;;16.30;;
75993;SDS011;64680;53.800;9.988;2022-10-31T06:34:19;16.80;;;9.20;;
75993;SDS011;64680;53.800;9.988;2022-10-31T06:36:48;25.30;;;13.13;;
75993;SDS011;64680;53.800;9.988;2022-10-31T06:39:14;12.27;;;7.43;;
75993;SDS011;64680;53.800;9.988;2022-10-31T06:41:39;18.35;;;10.05;;
75993;SDS011;64680;53.800;9.988;2022-10-31T06:44:06;21.70;;;12.48;;
75993;SDS011;64680;53.800;9.988;2022-10-31T06:46:32;19.45;;;11.80;;
75993;SDS011;64680;53.800;9.988;2022-10-31T06:48:58;22.27;;;12.07;;
75993;SDS011;64680;53.800;9.988;2022-10-31T06:51:24;23.08;;;12.02;;
75993;SDS011;64680;53.800;9.988;2022-10-31T06:53:49;23.45;;;12.90;;
75993;SDS011;64680;53.800;9.988;2022-10-31T06:56:15;36.67;;;14.65;;
75993;SDS011;64680;53.800;9.988;2022-10-31T06:58:41;33.55;;;16.08;;
75993;SDS011;64680;53.800;9.988;2022-10-31T07:01:06;16.27;;;8.75;;
75993;SDS011;64680;53.800;9.988;2022-10-31T07:03:32;13.90;;;6.97;;
75993;SDS011;64680;53.800;9.988;2022-10-31T07:05:57;26.92;;;13.20;;
75993;SDS011;64680;53.800;9.988;2022-10-31T07:08:23;14.43;;;7.70;;
75993;SDS011;64680;53.800;9.988;2022-10-31T07:10:53;16.38;;;9.43;;
75993;SDS011;64680;53.800;9.988;2022-10-31T07:13:21;25.92;;;11.38;;
75993;SDS011;64680;53.800;9.988;2022-10-31T07:15:50;59.00;;;16.02;;
75993;SDS011;64680;53.800;9.988;2022-10-31T07:18:17;11.75;;;6.75;;
75993;SDS011;64680;53.800;9.988;2022-10-31T07:20:43;15.73;;;9.25;;
75993;SDS011;64680;53.800;9.988;2022-10-31T07:23:09;44.10;;;15.02;;
75993;SDS011;64680;53.800;9.988;2022-10-31T07:25:36;17.17;;;9.23;;
75993;SDS011;64680;53.800;9.988;2022-10-31T07:28:02;13.98;;;9.10;;
75993;SDS011;64680;53.800;9.988;2022-10-31T07:30:28;11.30;;;6.68;;
75993;SDS011;64680;53.800;9.988;2022-10-31T07:32:53;26.75;;;12.75;;
75993;SDS011;64680;53.800;9.988;2022-10-31T07:35:24;50.60;;;13.75;;
75993;SDS011;64680;53.800;9.988;2022-10-31T07:37:51;22.15;;;9.70;;
75993;SDS011;64680;53.800;9.988;2022-10-31T07:40:17;13.10;;;7.43;;
75993;SDS011;64680;53.800;9.988;2022-10-31T07:42:44;33.88;;;10.52;;
75993;SDS011;64680;53.800;9.988;2022-10-31T07:52:29;39.45;;;10.63;;
75993;SDS011;64680;53.800;9.988;2022-10-31T07:54:55;13.73;;;6.78;;
75993;SDS011;64680;53.800;9.988;2022-10-31T07:57:20;44.95;;;10.43;;
75993;SDS011;64680;53.800;9.988;2022-10-31T07:59:46;14.63;;;6.22;;
75993;SDS011;64680;53.800;9.988;2022-10-31T08:02:11;11.20;;;5.57;;
75993;SDS011;64680;53.800;9.988;2022-10-31T08:04:37;25.20;;;9.55;;
75993;SDS011;64680;53.800;9.988;2022-10-31T08:07:02;30.33;;;11.00;;
75993;SDS011;64680;53.800;9.988;2022-10-31T08:09:28;12.05;;;6.47;;
75993;SDS011;64680;53.800;9.988;2022-10-31T08:11:53;9.20;;;4.65;;
75993;SDS011;64680;53.800;9.988;2022-10-31T08:14:19;13.10;;;7.10;;
75993;SDS011;64680;53.800;9.988;2022-10-31T08:16:44;25.33;;;8.52;;
75993;SDS011;64680;53.800;9.988;2022-10-31T08:19:10;13.55;;;6.63;;
75993;SDS011;64680;53.800;9.988;2022-10-31T08:21:36;26.45;;;8.10;;
75993;SDS011;64680;53.800;9.988;2022-10-31T08:24:01;10.15;;;5.65;;
75993;SDS011;64680;53.800;9.988;2022-10-31T08:26:27;7.40;;;3.42;;
75993;SDS011;64680;53.800;9.988;2022-10-31T08:28:52;8.13;;;4.45;;
75993;SDS011;64680;53.800;9.988;2022-10-31T08:31:19;9.68;;;4.68;;
75993;SDS011;64680;53.800;9.988;2022-10-31T08:33:45;9.13;;;5.20;;
75993;SDS011;64680;53.800;9.988;2022-10-31T08:36:11;10.18;;;5.93;;
75993;SDS011;64680;53.800;9.988;2022-10-31T08:38:36;11.40;;;4.72;;
75993;SDS011;64680;53.800;9.988;2022-10-31T08:41:02;11.63;;;5.78;;
75993;SDS011;64680;53.800;9.988;2022-10-31T08:43:27;11.73;;;6.00;;
75993;SDS011;64680;53.800;9.988;2022-10-31T08:45:53;8.43;;;4.22;;
75993;SDS011;64680;53.800;9.988;2022-10-31T08:48:20;47.05;;;12.77;;
75993;SDS011;64680;53.800;9.988;2022-10-31T08:50:46;30.63;;;9.98;;
75993;SDS011;64680;53.800;9.988;2022-10-31T08:53:13;8.98;;;4.95;;
75993;SDS011;64680;53.800;9.988;2022-10-31T08:55:44;53.83;;;13.30;;
75993;SDS011;64680;53.800;9.988;2022-10-31T08:58:12;44.28;;;10.57;;
75993;SDS011;64680;53.800;9.988;2022-10-31T09:00:41;40.13;;;10.20;;
75993;SDS011;64680;53.800;9.988;2022-10-31T09:03:11;11.52;;;6.30;;
75993;SDS011;64680;53.800;9.988;2022-10-31T09:05:38;12.18;;;6.90;;
75993;SDS011;64680;53.800;9.988;2022-10-31T09:08:04;8.80;;;5.40;;
75993;SDS011;64680;53.800;9.988;2022-10-31T09:10:31;10.27;;;4.90;;
75993;SDS011;64680;53.800;9.988;2022-10-31T09:13:02;9.75;;;5.18;;
75993;SDS011;64680;53.800;9.988;2022-10-31T09:15:32;24.75;;;9.50;;
75993;SDS011;64680;53.800;9.988;2022-10-31T09:17:59;12.55;;;7.15;;
75993;SDS011;64680;53.800;9.988;2022-10-31T09:20:25;7.07;;;3.65;;
75993;SDS011;64680;53.800;9.988;2022-10-31T09:22:55;9.35;;;5.35;;
75993;SDS011;64680;53.800;9.988;2022-10-31T09:25:25;8.30;;;5.05;;
75993;SDS011;64680;53.800;9.988;2022-10-31T09:27:55;9.35;;;4.45;;
75993;SDS011;64680;53.800;9.988;2022-10-31T09:30:28;6.95;;;3.88;;
75993;SDS011;64680;53.800;9.988;2022-10-31T09:32:56;10.63;;;5.88;;
75993;SDS011;64680;53.800;9.988;2022-10-31T09:35:23;10.18;;;5.35;;
75993;SDS011;64680;53.800;9.988;2022-10-31T09:37:59;10.23;;;5.32;;
75993;SDS011;64680;53.800;9.988;2022-10-31T09:40:31;8.95;;;5.43;;
75993;SDS011;64680;53.800;9.988;2022-10-31T09:43:09;13.32;;;6.97;;
75993;SDS011;64680;53.800;9.988;2022-10-31T09:53:53;8.13;;;5.60;;
75993;SDS011;64680;53.800;9.988;2022-10-31T09:56:27;10.27;;;5.40;;
75993;SDS011;64680;53.800;9.988;2022-10-31T09:58:57;9.07;;;5.43;;
75993;SDS011;64680;53.800;9.988;2022-10-31T10:10:13;20.00;;;9.27;;
75993;SDS011;64680;53.800;9.988;2022-10-31T10:26:19;10.82;;;6.78;;
75993;SDS011;64680;53.800;9.988;2022-10-31T10:28:51;8.60;;;5.32;;
75993;SDS011;64680;53.800;9.988;2022-10-31T10:31:23;8.07;;;4.90;;
75993;SDS011;64680;53.800;9.988;2022-10-31T10:36:44;17.13;;;9.35;;
75993;SDS011;64680;53.800;9.988;2022-10-31T10:39:24;10.02;;;6.05;;
75993;SDS011;64680;53.800;9.988;2022-10-31T10:41:55;13.27;;;7.85;;
75993;SDS011;64680;53.800;9.988;2022-10-31T10:44:43;11.10;;;5.55;;
75993;SDS011;64680;53.800;9.988;2022-10-31T10:47:33;10.30;;;5.50;;
75993;SDS011;64680;53.800;9.988;2022-10-31T10:58:08;9.00;;;5.07;;
75993;SDS011;64680;53.800;9.988;2022-10-31T11:00:36;10.40;;;6.07;;
75993;SDS011;64680;53.800;9.988;2022-10-31T11:03:07;11.07;;;6.50;;
75993;SDS011;64680;53.800;9.988;2022-10-31T11:08:09;10.73;;;6.30;;
75993;SDS011;64680;53.800;9.988;2022-10-31T11:10:35;11.43;;;6.88;;
75993;SDS011;64680;53.800;9.988;2022-10-31T11:13:03;8.27;;;5.15;;
75993;SDS011;64680;53.800;9.988;2022-10-31T11:15:56;6.95;;;3.80;;
75993;SDS011;64680;53.800;9.988;2022-10-31T11:18:26;10.75;;;6.07;;
75993;SDS011;64680;53.800;9.988;2022-10-31T11:20:55;9.20;;;4.43;;
75993;SDS011;64680;53.800;9.988;2022-10-31T11:23:23;10.80;;;5.43;;
75993;SDS011;64680;53.800;9.988;2022-10-31T11:25:51;12.65;;;6.85;;
75993;SDS011;64680;53.800;9.988;2022-10-31T11:28:20;9.57;;;6.22;;
75993;SDS011;64680;53.800;9.988;2022-10-31T11:35:52;10.30;;;6.38;;
75993;SDS011;64680;53.800;9.988;2022-10-31T11:38:20;14.13;;;7.78;;
75993;SDS011;64680;53.800;9.988;2022-10-31T11:40:52;8.15;;;4.28;;
75993;SDS011;64680;53.800;9.988;2022-10-31T11:43:20;8.40;;;4.75;;
75993;SDS011;64680;53.800;9.988;2022-10-31T11:45:46;6.82;;;4.10;;
75993;SDS011;64680;53.800;9.988;2022-10-31T11:48:16;14.52;;;7.70;;
75993;SDS011;64680;53.800;9.988;2022-10-31T11:50:50;15.63;;;9.48;;
75993;SDS011;64680;53.800;9.988;2022-10-31T11:53:21;10.88;;;6.18;;
75993;SDS011;64680;53.800;9.988;2022-10-31T11:58:38;7.88;;;4.25;;
75993;SDS011;64680;53.800;9.988;2022-10-31T12:01:05;8.50;;;4.97;;
75993;SDS011;64680;53.800;9.988;2022-10-31T12:06:05;8.38;;;4.80;;
75993;SDS011;64680;53.800;9.988;2022-10-31T12:08:55;9.88;;;5.45;;
75993;SDS011;64680;53.800;9.988;2022-10-31T12:11:27;11.57;;;6.57;;
75993;SDS011;64680;53.800;9.988;2022-10-31T12:16:59;9.48;;;5.07;;
75993;SDS011;64680;53.800;9.988;2022-10-31T12:19:42;12.23;;;5.85;;
75993;SDS011;64680;53.800;9.988;2022-10-31T12:25:41;10.77;;;5.13;;
75993;SDS011;64680;53.800;9.988;2022-10-31T12:36:21;10.38;;;5.35;;
75993;SDS011;64680;53.800;9.988;2022-10-31T12:41:46;10.90;;;5.60;;
75993;SDS011;64680;53.800;9.988;2022-10-31T12:44:36;7.90;;;5.68;;
75993;SDS011;64680;53.800;9.988;2022-10-31T12:57:47;11.07;;;6.18;;
75993;SDS011;64680;53.800;9.988;2022-10-31T13:00:18;9.52;;;5.78;;
75993;SDS011;64680;53.800;9.988;2022-10-31T13:05:24;7.35;;;5.00;;
75993;SDS011;64680;53.800;9.988;2022-10-31T13:08:44;9.45;;;5.70;;
75993;SDS011;64680;53.800;9.988;2022-10-31T13:11:12;12.75;;;7.32;;
75993;SDS011;64680;53.800;9.988;2022-10-31T13:13:48;11.30;;;6.03;;
75993;SDS011;64680;53.800;9.988;2022-10-31T13:16:28;9.00;;;4.95;;
75993;SDS011;64680;53.800;9.988;2022-10-31T13:19:00;11.35;;;6.60;;
75993;SDS011;64680;53.800;9.988;2022-10-31T13:21:33;9.82;;;6.22;;
75993;SDS011;64680;53.800;9.988;2022-10-31T13:24:16;11.85;;;6.93;;
75993;SDS011;64680;53.800;9.988;2022-10-31T13:26:47;9.88;;;6.80;;
75993;SDS011;64680;53.800;9.988;2022-10-31T13:29:29;9.75;;;5.95;;
75993;SDS011;64680;53.800;9.988;2022-10-31T13:31:59;10.90;;;6.38;;
75993;SDS011;64680;53.800;9.988;2022-10-31T13:34:33;11.93;;;8.00;;
75993;SDS011;64680;53.800;9.988;2022-10-31T13:37:09;10.93;;;6.65;;
75993;SDS011;64680;53.800;9.988;2022-10-31T13:39:46;8.05;;;4.70;;
75993;SDS011;64680;53.800;9.988;2022-10-31T13:45:19;10.90;;;5.72;;
75993;SDS011;64680;53.800;9.988;2022-10-31T13:47:59;12.85;;;8.70;;
75993;SDS011;64680;53.800;9.988;2022-10-31T13:50:58;9.88;;;5.75;;
75993;SDS011;64680;53.800;9.988;2022-10-31T13:53:45;10.45;;;6.15;;
75993;SDS011;64680;53.800;9.988;2022-10-31T13:56:30;11.63;;;6.97;;
75993;SDS011;64680;53.800;9.988;2022-10-31T13:58:59;11.85;;;6.05;;
75993;SDS011;64680;53.800;9.988;2022-10-31T14:01:32;8.90;;;6.45;;
75993;SDS011;64680;53.800;9.988;2022-10-31T14:07:08;6.47;;;4.43;;
75993;SDS011;64680;53.800;9.988;2022-10-31T14:09:38;13.38;;;8.00;;
75993;SDS011;64680;53.800;9.988;2022-10-31T14:15:21;9.90;;;6.18;;
75993;SDS011;64680;53.800;9.988;2022-10-31T14:17:49;10.60;;;6.25;;
75993;SDS011;64680;53.800;9.988;2022-10-31T14:20:33;7.07;;;4.97;;
75993;SDS011;64680;53.800;9.988;2022-10-31T14:28:51;8.48;;;5.47;;
75993;SDS011;64680;53.800;9.988;2022-10-31T14:31:44;7.57;;;5.38;;
75993;SDS011;64680;53.800;9.988;2022-10-31T14:34:21;9.93;;;5.35;;
75993;SDS011;64680;53.800;9.988;2022-10-31T14:43:10;12.55;;;6.65;;
75993;SDS011;64680;53.800;9.988;2022-10-31T14:45:39;8.60;;;4.93;;
75993;SDS011;64680;53.800;9.988;2022-10-31T14:51:18;10.88;;;6.50;;
75993;SDS011;64680;53.800;9.988;2022-10-31T14:53:47;14.63;;;7.15;;
75993;SDS011;64680;53.800;9.988;2022-10-31T14:56:23;17.02;;;9.15;;
75993;SDS011;64680;53.800;9.988;2022-10-31T14:58:52;13.77;;;8.35;;
75993;SDS011;64680;53.800;9.988;2022-10-31T15:01:27;12.85;;;7.97;;
75993;SDS011;64680;53.800;9.988;2022-10-31T15:04:00;13.35;;;7.75;;
75993;SDS011;64680;53.800;9.988;2022-10-31T15:06:42;12.10;;;8.35;;
75993;SDS011;64680;53.800;9.988;2022-10-31T15:09:54;13.98;;;9.63;;
75993;SDS011;64680;53.800;9.988;2022-10-31T15:12:41;11.82;;;7.97;;
75993;SDS011;64680;53.800;9.988;2022-10-31T15:15:13;11.23;;;6.57;;
75993;SDS011;64680;53.800;9.988;2022-10-31T15:17:43;14.05;;;6.53;;
75993;SDS011;64680;53.800;9.988;2022-10-31T15:20:11;10.77;;;6.75;;
75993;SDS011;64680;53.800;9.988;2022-10-31T15:22:42;9.75;;;6.00;;
75993;SDS011;64680;53.800;9.988;2022-10-31T15:25:27;9.52;;;5.40;;
75993;SDS011;64680;53.800;9.988;2022-10-31T15:27:57;8.55;;;5.63;;
75993;SDS011;64680;53.800;9.988;2022-10-31T15:30:24;7.97;;;5.65;;
75993;SDS011;64680;53.800;9.988;2022-10-31T15:32:51;11.77;;;5.82;;
75993;SDS011;64680;53.800;9.988;2022-10-31T15:35:19;12.65;;;8.18;;
75993;SDS011;64680;53.800;9.988;2022-10-31T15:37:45;10.73;;;6.50;;
75993;SDS011;64680;53.800;9.988;2022-10-31T15:40:15;10.68;;;6.38;;
75993;SDS011;64680;53.800;9.988;2022-10-31T15:42:41;8.48;;;4.93;;
75993;SDS011;64680;53.800;9.988;2022-10-31T15:47:37;12.25;;;7.30;;
75993;SDS011;64680;53.800;9.988;2022-10-31T15:50:04;12.35;;;6.70;;
75993;SDS011;64680;53.800;9.988;2022-10-31T15:52:43;8.63;;;5.53;;
75993;SDS011;64680;53.800;9.988;2022-10-31T15:57:48;13.02;;;7.55;;
75993;SDS011;64680;53.800;9.988;2022-10-31T16:03:41;14.15;;;7.70;;
75993;SDS011;64680;53.800;9.988;2022-10-31T16:13:33;13.63;;;6.95;;
75993;SDS011;64680;53.800;9.988;2022-10-31T16:16:03;12.30;;;6.78;;
75993;SDS011;64680;53.800;9.988;2022-10-31T16:18:36;14.00;;;7.57;;
75993;SDS011;64680;53.800;9.988;2022-10-31T16:21:03;12.10;;;6.35;;
75993;SDS011;64680;53.800;9.988;2022-10-31T16:23:30;14.93;;;7.90;;
75993;SDS011;64680;53.800;9.988;2022-10-31T16:25:55;11.05;;;6.68;;
75993;SDS011;64680;53.800;9.988;2022-10-31T16:28:22;12.75;;;7.90;;
75993;SDS011;64680;53.800;9.988;2022-10-31T16:30:51;13.65;;;7.57;;
75993;SDS011;64680;53.800;9.988;2022-10-31T16:35:49;12.27;;;5.68;;
75993;SDS011;64680;53.800;9.988;2022-10-31T16:38:15;15.10;;;7.75;;
75993;SDS011;64680;53.800;9.988;2022-10-31T16:40:41;10.82;;;6.15;;
75993;SDS011;64680;53.800;9.988;2022-10-31T16:43:13;12.85;;;6.47;;
75993;SDS011;64680;53.800;9.988;2022-10-31T16:45:43;12.73;;;7.10;;
75993;SDS011;64680;53.800;9.988;2022-10-31T16:48:12;14.48;;;7.93;;
75993;SDS011;64680;53.800;9.988;2022-10-31T16:50:39;13.90;;;8.07;;
75993;SDS011;64680;53.800;9.988;2022-10-31T16:53:06;14.98;;;8.57;;
75993;SDS011;64680;53.800;9.988;2022-10-31T16:55:31;14.40;;;8.48;;
75993;SDS011;64680;53.800;9.988;2022-10-31T16:58:00;12.85;;;7.32;;
75993;SDS011;64680;53.800;9.988;2022-10-31T17:00:26;14.65;;;8.02;;
75993;SDS011;64680;53.800;9.988;2022-10-31T17:02:54;14.27;;;8.40;;
75993;SDS011;64680;53.800;9.988;2022-10-31T17:05:24;16.38;;;9.07;;
75993;SDS011;64680;53.800;9.988;2022-10-31T17:07:57;18.05;;;10.48;;
75993;SDS011;64680;53.800;9.988;2022-10-31T17:10:23;13.45;;;8.20;;
75993;SDS011;64680;53.800;9.988;2022-10-31T17:12:49;16.75;;;7.95;;
75993;SDS011;64680;53.800;9.988;2022-10-31T17:15:16;14.95;;;7.80;;
75993;SDS011;64680;53.800;9.988;2022-10-31T17:17:46;16.75;;;8.85;;
75993;SDS011;64680;53.800;9.988;2022-10-31T17:20:15;15.48;;;8.10;;
75993;SDS011;64680;53.800;9.988;2022-10-31T17:22:52;16.30;;;8.35;;
75993;SDS011;64680;53.800;9.988;2022-10-31T17:25:20;15.65;;;8.38;;
75993;SDS011;64680;53.800;9.988;2022-10-31T17:27:49;20.75;;;10.55;;
75993;SDS011;64680;53.800;9.988;2022-10-31T17:30:15;19.85;;;10.43;;
75993;SDS011;64680;53.800;9.988;2022-10-31T17:32:42;17.90;;;10.35;;
75993;SDS011;64680;53.800;9.988;2022-10-31T17:35:09;20.50;;;10.23;;
75993;SDS011;64680;53.800;9.988;2022-10-31T17:37:35;19.75;;;10.65;;
75993;SDS011;64680;53.800;9.988;2022-10-31T17:40:01;22.40;;;10.95;;